Terminal Aerodrome Forecast
Issued by NWS

Home | Current Version | Previous Version | Text Only | Print | Product List | Glossary On
Versions: 1 2 3 4 5 6 7 8 9 10 11 12 13 14 15 16
000
FTAK31 PAJN 111138
TAFASI
TAF
PASI 111138Z 1112/1212 14008KT 4SM RA BR BKN019 OVC030
      WS020/16040KT
     FM111800 14008KT 4SM -RA BR BKN010 OVC025
     FM112100 11005KT 5SM -RA BR SCT010 OVC025
     FM120200 12005KT P6SM VCSH BKN015 OVC025
     FM120700 11008KT 5SM -RA BR OVC015=

USA.gov is the U.S. government's official web portal to all federal, state and local government web resources and services.